Time;durP1;ratioP1;P1;durP2;ratioP2;P2;SDS_P1;SDS_P2;PMS_P1;PMS_P2;Temp;Humidity;BMP_temperature;BMP_pressure;BME280_temperature;BME280_humidity;BME280_pressure;Samples;Min_cycle;Max_cycle;Signal;HPM_P1;HPM_P2
2021/05/11 00:02:03;;;;;;;3.10;2.20;;;16.80;99.90;;;;;;5030283;28;20454;-70
2021/05/11 00:04:31;;;;;;;4.33;2.33;;;16.80;99.90;;;;;;5031305;28;20441;-69
2021/05/11 00:06:58;;;;;;;4.07;2.53;;;16.80;99.90;;;;;;5031136;28;20910;-70
2021/05/11 00:09:26;;;;;;;2.73;2.53;;;16.80;99.90;;;;;;5031144;28;20600;-69
2021/05/11 00:11:54;;;;;;;2.70;1.90;;;16.80;99.90;;;;;;5031096;28;20463;-69
2021/05/11 00:14:21;;;;;;;1.90;1.80;;;16.80;99.90;;;;;;5031467;28;20391;-69
2021/05/11 00:16:48;;;;;;;1.87;1.77;;;16.80;99.90;;;;;;5030263;28;20850;-70
2021/05/11 00:19:17;;;;;;;2.70;2.50;;;16.80;99.90;;;;;;5031934;28;20759;-70
2021/05/11 00:21:44;;;;;;;2.23;2.00;;;16.80;99.90;;;;;;5032875;28;20455;-70
2021/05/11 00:24:15;;;;;;;3.50;2.10;;;16.80;99.90;;;;;;5036360;28;20395;-70
2021/05/11 00:26:44;;;;;;;2.13;1.93;;;16.80;99.90;;;;;;5047484;28;20458;-70
2021/05/11 00:29:12;;;;;;;1.57;1.43;;;16.70;99.90;;;;;;5045665;28;20459;-70
2021/05/11 00:31:39;;;;;;;2.77;1.97;;;16.70;99.90;;;;;;5046360;28;20395;-70
2021/05/11 00:34:06;;;;;;;2.90;2.00;;;16.70;99.90;;;;;;5044541;28;20410;-69
2021/05/11 00:36:34;;;;;;;1.83;1.40;;;16.70;99.90;;;;;;5043914;28;20499;-68
2021/05/11 00:39:02;;;;;;;2.20;1.77;;;16.70;99.90;;;;;;5044714;28;20468;-70
2021/05/11 00:41:29;;;;;;;2.53;2.33;;;16.60;99.90;;;;;;5042942;28;20414;-69
2021/05/11 00:44:00;;;;;;;1.80;1.60;;;16.70;99.90;;;;;;5043017;28;20414;-70
2021/05/11 00:46:29;;;;;;;3.23;1.80;;;16.60;99.90;;;;;;5034776;28;20447;-69
2021/05/11 00:48:57;;;;;;;2.17;1.97;;;16.60;99.90;;;;;;5030585;28;20426;-69
2021/05/11 00:51:24;;;;;;;2.90;2.67;;;16.60;99.90;;;;;;5030754;28;20955;-70
2021/05/11 00:53:52;;;;;;;2.47;1.50;;;16.60;99.90;;;;;;5030098;28;20852;-69
2021/05/11 00:56:21;;;;;;;1.70;1.57;;;16.60;99.90;;;;;;5030209;28;20399;-70
2021/05/11 00:58:48;;;;;;;1.80;1.70;;;16.60;99.90;;;;;;5029993;28;20428;-69
2021/05/11 01:01:16;;;;;;;1.97;1.27;;;16.60;99.90;;;;;;5029535;28;20554;-69
2021/05/11 01:03:43;;;;;;;2.57;1.77;;;16.60;99.90;;;;;;5029935;28;20418;-70
2021/05/11 01:06:11;;;;;;;2.43;1.60;;;16.60;99.90;;;;;;5030421;28;20395;-69
2021/05/11 01:08:38;;;;;;;1.20;1.10;;;16.60;99.90;;;;;;5028656;28;21011;-69
2021/05/11 01:11:05;;;;;;;2.37;1.60;;;16.60;99.90;;;;;;5029655;28;20451;-69
2021/05/11 01:13:32;;;;;;;2.07;1.70;;;16.60;99.90;;;;;;5029510;28;20455;-69
2021/05/11 01:15:59;;;;;;;2.47;1.77;;;16.60;99.90;;;;;;5028848;28;20444;-69
2021/05/11 01:18:31;;;;;;;1.93;1.57;;;16.60;99.90;;;;;;5030059;28;20398;-70
2021/05/11 01:21:03;;;;;;;2.07;1.83;;;16.60;99.90;;;;;;5030452;28;20449;-70
2021/05/11 01:26:24;;;;;;;2.47;2.10;;;16.40;99.90;;;;;;5033142;28;20402;-69
2021/05/11 01:28:57;;;;;;;2.43;2.17;;;16.40;99.90;;;;;;5033144;28;20798;-69
2021/05/11 01:32:04;;;;;;;3.20;1.77;;;16.40;99.90;;;;;;5032807;28;20423;-69
2021/05/11 01:48:40;;;;;;;2.70;1.73;;;16.30;99.90;;;;;;4996442;28;20407;-70
2021/05/11 01:51:19;;;;;;;3.73;2.10;;;16.30;99.90;;;;;;5032824;28;20956;-70
2021/05/11 01:57:04;;;;;;;2.77;2.23;;;16.20;99.90;;;;;;5008597;28;20494;-70
2021/05/11 02:17:47;;;;;;;2.57;2.37;;;16.10;99.90;;;;;;5032505;28;20454;-70
2021/05/11 02:25:04;;;;;;;2.50;2.00;;;16.00;99.90;;;;;;5028401;28;20472;-69
2021/05/11 02:27:32;;;;;;;5.80;2.40;;;15.90;99.90;;;;;;5032672;28;21014;-68
2021/05/11 02:30:00;;;;;;;3.53;2.40;;;15.90;99.90;;;;;;5032220;28;20982;-68
2021/05/11 02:32:27;;;;;;;2.27;2.00;;;15.90;99.90;;;;;;5031112;28;20418;-71
2021/05/11 02:34:55;;;;;;;2.83;1.93;;;15.90;99.90;;;;;;5032083;28;20409;-70
2021/05/11 02:37:22;;;;;;;3.07;2.40;;;15.80;99.90;;;;;;5032591;28;20497;-70
2021/05/11 02:39:49;;;;;;;3.10;2.30;;;15.80;99.90;;;;;;5030987;28;20498;-70
2021/05/11 02:42:16;;;;;;;2.40;2.20;;;15.80;99.90;;;;;;5032608;28;20633;-69
2021/05/11 02:44:45;;;;;;;3.10;2.60;;;15.80;99.90;;;;;;5031824;28;20428;-69
2021/05/11 02:47:14;;;;;;;2.60;1.93;;;15.70;99.90;;;;;;5032204;28;20419;-69
2021/05/11 02:49:43;;;;;;;2.03;1.83;;;15.70;99.90;;;;;;5031376;28;20935;-69
2021/05/11 02:52:11;;;;;;;2.87;2.60;;;15.70;99.90;;;;;;5031567;28;20529;-69
2021/05/11 02:54:38;;;;;;;2.50;2.30;;;15.70;99.90;;;;;;5031590;28;20428;-69
2021/05/11 02:57:07;;;;;;;5.53;2.87;;;15.70;99.90;;;;;;5031568;28;20405;-69
2021/05/11 02:59:39;;;;;;;1.67;1.57;;;15.60;99.90;;;;;;5031143;28;20424;-69
2021/05/11 03:02:08;;;;;;;2.30;2.10;;;15.60;99.90;;;;;;5031274;28;20780;-69
2021/05/11 03:04:36;;;;;;;3.30;2.60;;;15.60;99.90;;;;;;5031185;28;20940;-69
2021/05/11 03:07:03;;;;;;;2.67;2.47;;;15.60;99.90;;;;;;5031517;28;20760;-69
2021/05/11 03:09:31;;;;;;;2.33;1.87;;;15.60;99.90;;;;;;5031208;28;20409;-70
2021/05/11 03:11:58;;;;;;;3.37;2.50;;;15.60;99.90;;;;;;5030974;28;20533;-68
2021/05/11 03:14:25;;;;;;;2.63;1.77;;;15.60;99.90;;;;;;5030865;28;20903;-68
2021/05/11 03:16:54;;;;;;;3.67;2.83;;;15.60;99.90;;;;;;5031356;28;20542;-71
2021/05/11 03:19:24;;;;;;;3.00;2.30;;;15.50;99.90;;;;;;5031795;28;20770;-70
2021/05/11 03:21:52;;;;;;;3.30;3.00;;;15.50;99.90;;;;;;5029621;28;20462;-70
2021/05/11 03:24:19;;;;;;;3.20;2.70;;;15.50;99.90;;;;;;5031238;28;21004;-68
2021/05/11 03:26:46;;;;;;;2.20;2.00;;;15.50;99.90;;;;;;5030030;28;20848;-69
2021/05/11 03:29:14;;;;;;;3.40;3.07;;;15.50;99.90;;;;;;5029592;28;20502;-69
2021/05/11 03:31:41;;;;;;;2.70;2.50;;;15.50;99.90;;;;;;5031404;28;20399;-69
2021/05/11 03:34:09;;;;;;;2.27;2.07;;;15.50;99.90;;;;;;5030993;28;20899;-69
2021/05/11 03:36:36;;;;;;;4.40;2.77;;;15.50;99.90;;;;;;5030910;28;20427;-69
2021/05/11 03:39:06;;;;;;;3.90;3.00;;;15.50;99.90;;;;;;5030737;28;20533;-69
2021/05/11 03:41:37;;;;;;;3.10;2.80;;;15.50;99.90;;;;;;5031090;28;20481;-69
2021/05/11 03:44:07;;;;;;;4.00;3.30;;;15.40;99.90;;;;;;5030602;28;20432;-69
2021/05/11 03:46:35;;;;;;;5.87;2.93;;;15.40;99.90;;;;;;5031310;28;20383;-68
2021/05/11 03:49:04;;;;;;;3.20;2.90;;;15.30;99.90;;;;;;5030854;28;20416;-69
2021/05/11 03:51:33;;;;;;;9.30;3.93;;;15.30;99.90;;;;;;5030476;28;20463;-69
2021/05/11 03:54:00;;;;;;;4.50;3.10;;;15.40;99.90;;;;;;5030452;28;20394;-70
2021/05/11 03:56:29;;;;;;;5.73;3.17;;;15.40;99.90;;;;;;5030907;28;20407;-68
2021/05/11 03:58:58;;;;;;;4.83;3.50;;;15.70;99.90;;;;;;5030490;28;20473;-68
2021/05/11 04:01:25;;;;;;;3.10;2.80;;;16.00;99.90;;;;;;5030901;28;20410;-69
2021/05/11 04:03:53;;;;;;;6.53;3.60;;;15.90;99.90;;;;;;5030601;28;20815;-68
2021/05/11 04:06:21;;;;;;;4.00;3.23;;;15.70;99.90;;;;;;5030585;28;20410;-69
2021/05/11 04:08:52;;;;;;;4.97;4.20;;;15.70;99.90;;;;;;5030573;28;20490;-68
2021/05/11 04:11:40;;;;;;;5.90;3.90;;;15.70;99.90;;;;;;5030129;28;20442;-69
2021/05/11 04:14:20;;;;;;;5.23;3.97;;;15.70;99.90;;;;;;5030135;28;20431;-68
2021/05/11 04:16:47;;;;;;;6.23;4.40;;;15.60;99.90;;;;;;5030599;28;20857;-70
2021/05/11 04:19:15;;;;;;;7.00;4.10;;;15.80;99.90;;;;;;5028752;28;20433;-69
2021/05/11 04:21:43;;;;;;;5.60;5.10;;;16.30;99.90;;;;;;5030441;28;21066;-69
2021/05/11 04:24:11;;;;;;;5.27;4.77;;;16.50;99.90;;;;;;5030390;28;20432;-68
2021/05/11 04:26:38;;;;;;;4.50;4.10;;;16.40;99.90;;;;;;5030283;28;20420;-69
2021/05/11 04:29:06;;;;;;;4.10;3.70;;;16.30;99.90;;;;;;5030382;28;20511;-68
2021/05/11 04:31:37;;;;;;;5.70;3.43;;;16.50;99.90;;;;;;5030152;28;20504;-69
2021/05/11 04:34:05;;;;;;;5.40;4.70;;;16.80;99.90;;;;;;5030441;28;20431;-70
2021/05/11 04:36:33;;;;;;;5.33;4.73;;;17.30;99.90;;;;;;5030115;28;20903;-69
2021/05/11 04:39:01;;;;;;;5.57;4.87;;;17.60;99.90;;;;;;5030414;28;20447;-69
2021/05/11 04:41:28;;;;;;;4.47;3.70;;;17.80;99.90;;;;;;5029781;28;20519;-70
2021/05/11 04:43:57;;;;;;;4.80;4.27;;;18.40;99.90;;;;;;5030442;28;20957;-70
2021/05/11 04:46:27;;;;;;;3.97;3.57;;;18.80;99.90;;;;;;5030158;28;20439;-69
2021/05/11 04:48:56;;;;;;;5.30;3.93;;;19.40;99.90;;;;;;5030301;28;20515;-68
2021/05/11 04:51:24;;;;;;;4.13;3.50;;;19.80;99.90;;;;;;5030243;28;20503;-69
2021/05/11 04:53:51;;;;;;;6.10;4.03;;;20.20;99.90;;;;;;5030360;28;20451;-70
2021/05/11 04:56:19;;;;;;;6.23;4.67;;;20.30;99.90;;;;;;5031281;28;20515;-70
2021/05/11 04:58:47;;;;;;;4.03;3.50;;;21.00;99.90;;;;;;5034421;28;20420;-71
2021/05/11 05:01:14;;;;;;;6.47;4.63;;;19.50;99.90;;;;;;5035248;28;20892;-70
2021/05/11 05:03:46;;;;;;;5.73;3.90;;;19.40;99.90;;;;;;5034617;28;20785;-70
2021/05/11 05:06:14;;;;;;;6.63;4.07;;;20.30;99.90;;;;;;5034471;28;20744;-68
2021/05/11 05:08:42;;;;;;;8.00;5.20;;;21.20;99.90;;;;;;5034900;28;20466;-68
2021/05/11 05:11:10;;;;;;;5.20;4.10;;;21.20;99.90;;;;;;5033215;28;20469;-69
2021/05/11 05:13:38;;;;;;;5.40;4.00;;;21.20;99.90;;;;;;5033928;28;20455;-69
2021/05/11 05:16:05;;;;;;;4.57;3.57;;;22.00;99.90;;;;;;5034796;28;20435;-67
2021/05/11 05:18:33;;;;;;;6.50;4.27;;;23.10;99.90;;;;;;5035147;28;20416;-68
2021/05/11 05:21:05;;;;;;;3.90;3.60;;;22.40;99.90;;;;;;5034811;28;20519;-68
2021/05/11 05:23:39;;;;;;;4.93;4.03;;;20.90;99.90;;;;;;5046643;28;20444;-69
2021/05/11 05:26:10;;;;;;;6.13;4.57;;;20.20;99.90;;;;;;5048232;28;20928;-70
2021/05/11 05:28:39;;;;;;;9.23;4.50;;;19.00;99.90;;;;;;5051193;28;20398;-69
2021/05/11 05:31:07;;;;;;;8.50;5.40;;;18.80;99.90;;;;;;5046305;28;20458;-69
2021/05/11 05:33:37;;;;;;;5.43;3.97;;;18.50;99.90;;;;;;5042474;28;20425;-69
2021/05/11 05:36:05;;;;;;;7.67;5.37;;;18.20;99.90;;;;;;5040608;28;20523;-70
2021/05/11 05:38:34;;;;;;;5.93;5.33;;;18.20;99.90;;;;;;5039277;28;20399;-68
2021/05/11 05:41:06;;;;;;;5.80;4.97;;;18.10;99.90;;;;;;5036402;28;20454;-69
2021/05/11 05:43:34;;;;;;;6.10;4.97;;;18.10;99.90;;;;;;5036692;28;21010;-69
2021/05/11 05:46:02;;;;;;;5.43;4.70;;;18.10;99.90;;;;;;5034476;28;20438;-69
2021/05/11 05:48:30;;;;;;;5.50;4.17;;;18.30;99.90;;;;;;5034500;28;20428;-69
2021/05/11 05:50:59;;;;;;;4.63;4.23;;;18.80;99.90;;;;;;5031442;28;20970;-69
2021/05/11 05:53:34;;;;;;;6.20;5.60;;;18.80;99.90;;;;;;5033045;28;20510;-71
2021/05/11 05:56:04;;;;;;;4.60;4.13;;;18.80;99.90;;;;;;5032480;28;20406;-70
2021/05/11 05:58:32;;;;;;;5.33;4.53;;;18.60;99.90;;;;;;5030289;28;20524;-70
2021/05/11 06:01:02;;;;;;;5.00;4.60;;;18.50;99.90;;;;;;5028159;28;20428;-68
2021/05/11 06:03:34;;;;;;;5.77;5.03;;;18.50;99.90;;;;;;5031015;28;20906;-68
2021/05/11 06:06:04;;;;;;;5.80;4.53;;;18.50;99.90;;;;;;5031425;28;20805;-68
2021/05/11 06:08:32;;;;;;;5.33;4.83;;;18.70;99.90;;;;;;5032841;28;20870;-68
2021/05/11 06:11:05;;;;;;;5.63;5.03;;;18.90;99.90;;;;;;5032019;28;20517;-69
2021/05/11 06:13:38;;;;;;;5.63;5.00;;;18.90;99.90;;;;;;5032374;28;20491;-70
2021/05/11 06:18:52;;;;;;;5.03;4.43;;;19.50;99.90;;;;;;5024156;28;20425;-67
2021/05/11 06:21:21;;;;;;;6.40;4.23;;;20.00;99.90;;;;;;5018375;28;20846;-68
2021/05/11 06:23:49;;;;;;;6.20;5.70;;;20.50;99.90;;;;;;5014253;28;20415;-68
2021/05/11 06:26:16;;;;;;;4.93;4.47;;;20.30;99.90;;;;;;5017252;28;20408;-67
2021/05/11 06:28:45;;;;;;;5.10;4.60;;;20.00;99.90;;;;;;5012086;28;20429;-67
2021/05/11 06:31:13;;;;;;;6.00;5.20;;;20.10;99.90;;;;;;5012114;28;20436;-68
2021/05/11 06:33:41;;;;;;;5.60;4.97;;;20.30;99.90;;;;;;5024709;28;20530;-68
2021/05/11 06:36:08;;;;;;;5.40;3.63;;;20.50;99.90;;;;;;5031804;28;20506;-68
2021/05/11 06:38:37;;;;;;;4.90;4.50;;;20.60;99.90;;;;;;5028385;28;20495;-69
2021/05/11 06:41:04;;;;;;;5.20;4.67;;;20.80;99.90;;;;;;5010342;28;20429;-68
2021/05/11 06:43:34;;;;;;;6.33;5.77;;;20.70;99.90;;;;;;5011991;28;20453;-69
2021/05/11 06:48:55;;;;;;;5.47;4.97;;;20.40;99.90;;;;;;5012279;28;20467;-69
2021/05/11 06:54:14;;;;;;;4.57;4.17;;;21.20;99.90;;;;;;4956636;28;20502;-71
2021/05/11 06:56:43;;;;;;;3.80;3.50;;;21.70;99.90;;;;;;5010616;28;20427;-69
2021/05/11 06:59:12;;;;;;;6.80;4.40;;;21.70;99.90;;;;;;5011899;28;20479;-69
2021/05/11 07:01:40;;;;;;;5.00;4.50;;;21.40;99.90;;;;;;5012286;28;20929;-70
2021/05/11 07:04:08;;;;;;;7.13;5.00;;;21.20;99.90;;;;;;5011186;28;20468;-68
2021/05/11 07:06:38;;;;;;;5.20;4.80;;;20.90;99.90;;;;;;5011690;28;20460;-70
2021/05/11 07:09:09;;;;;;;5.57;5.07;;;21.10;99.90;;;;;;5011834;28;20417;-68
2021/05/11 07:14:20;;;;;;;5.80;4.70;;;20.90;99.90;;;;;;5011599;28;20457;-69
2021/05/11 07:16:49;;;;;;;6.00;5.40;;;21.10;99.90;;;;;;5021140;28;20527;-69
2021/05/11 07:19:18;;;;;;;4.57;4.17;;;21.50;99.90;;;;;;5011895;28;20436;-70
2021/05/11 07:21:45;;;;;;;7.17;4.80;;;21.80;99.90;;;;;;5010755;28;20863;-66
2021/05/11 07:24:13;;;;;;;4.43;4.03;;;22.00;99.90;;;;;;5010688;28;20429;-67
2021/05/11 07:26:58;;;;;;;4.47;4.10;;;22.20;99.90;;;;;;5011373;28;20945;-69
2021/05/11 07:29:39;;;;;;;5.73;4.40;;;22.10;99.90;;;;;;5010244;28;20479;-68
2021/05/11 07:32:07;;;;;;;6.33;5.63;;;22.10;99.90;;;;;;5010082;28;20473;-70
2021/05/11 07:34:40;;;;;;;6.37;5.63;;;22.10;99.90;;;;;;5009833;28;20449;-69
2021/05/11 07:37:08;;;;;;;7.17;5.50;;;22.30;99.90;;;;;;5011095;28;20420;-67
2021/05/11 07:39:36;;;;;;;4.07;3.67;;;22.70;99.90;;;;;;5010967;28;20642;-68
2021/05/11 07:42:04;;;;;;;5.40;4.90;;;23.10;99.90;;;;;;5010511;28;20445;-70
2021/05/11 07:44:37;;;;;;;7.97;4.80;;;23.50;99.90;;;;;;5010075;28;20421;-69
2021/05/11 07:47:10;;;;;;;4.73;4.33;;;23.80;99.90;;;;;;5010906;28;20435;-68
2021/05/11 07:50:21;;;;;;;5.30;4.80;;;24.00;99.90;;;;;;5010327;28;20482;-67
2021/05/11 08:04:20;;;;;;;5.80;4.50;;;24.40;99.90;;;;;;5012763;28;20445;-68
2021/05/11 08:15:20;;;;;;;5.50;4.40;;;25.10;99.90;;;;;;5035429;22;20491;-68
2021/05/11 08:17:52;;;;;;;4.93;3.83;;;25.00;99.90;;;;;;5049261;28;20415;-67
2021/05/11 08:23:24;;;;;;;4.77;4.37;;;25.40;99.90;;;;;;5034730;28;20456;-66
2021/05/11 08:28:39;;;;;;;5.23;3.70;;;25.80;99.90;;;;;;5029062;28;20474;-67
2021/05/11 08:31:06;;;;;;;4.57;4.17;;;26.10;99.90;;;;;;5028305;28;20427;-67
2021/05/11 08:33:34;;;;;;;5.30;4.47;;;26.20;99.90;;;;;;5029101;28;20566;-66
2021/05/11 08:36:03;;;;;;;4.43;4.03;;;26.40;99.90;;;;;;5028799;28;20428;-65
2021/05/11 08:38:32;;;;;;;4.63;4.23;;;26.40;99.90;;;;;;5028961;28;20924;-66
2021/05/11 08:40:59;;;;;;;9.13;3.50;;;26.40;99.90;;;;;;5028591;28;20435;-67
2021/05/11 08:43:30;;;;;;;4.13;3.43;;;26.60;99.90;;;;;;5028764;28;20436;-66
2021/05/11 08:46:03;;;;;;;3.47;3.17;;;26.50;99.90;;;;;;5027791;28;20447;-67
2021/05/11 08:48:32;;;;;;;4.83;4.33;;;26.60;99.90;;;;;;5029300;28;20428;-66
2021/05/11 08:51:04;;;;;;;4.90;4.40;;;26.80;99.90;;;;;;5028360;28;20474;-66
2021/05/11 08:54:04;;;;;;;3.50;3.20;;;27.10;99.90;;;;;;5028768;28;20966;-66
2021/05/11 09:05:08;;;;;;;2.77;2.53;;;28.00;99.90;;;;;;5008568;28;20507;-67
2021/05/11 09:24:55;;;;;;;3.57;2.83;;;27.80;99.90;;;;;;4976693;28;20441;-68
2021/05/11 09:27:39;;;;;;;4.10;3.53;;;27.80;99.90;;;;;;5009630;28;20490;-67
2021/05/11 09:30:16;;;;;;;3.60;3.30;;;27.40;99.90;;;;;;5009064;28;20425;-69
2021/05/11 10:48:26;;;;;;;4.60;4.27;;;26.90;99.90;;;;;;5009707;28;20532;-69
2021/05/11 10:50:55;;;;;;;4.73;4.20;;;26.80;99.90;;;;;;5010235;28;20431;-69
2021/05/11 10:53:49;;;;;;;3.93;3.63;;;26.60;99.90;;;;;;5008482;28;21071;-68
2021/05/11 10:56:56;;;;;;;7.73;4.73;;;26.50;99.90;;;;;;5010817;28;20854;-69
2021/05/11 10:59:37;;;;;;;5.90;4.17;;;26.60;99.90;;;;;;5010902;28;20515;-68
2021/05/11 11:02:26;;;;;;;4.60;4.30;;;26.80;99.90;;;;;;5009993;28;20453;-68
2021/05/11 11:04:55;;;;;;;5.40;4.57;;;27.00;99.90;;;;;;5010497;28;20421;-69
2021/05/11 11:07:34;;;;;;;4.90;4.50;;;27.10;99.90;;;;;;5010519;28;20429;-69
2021/05/11 11:10:06;;;;;;;5.67;5.07;;;27.00;99.90;;;;;;5010546;28;20452;-68
2021/05/11 11:12:40;;;;;;;6.00;5.40;;;27.10;99.90;;;;;;5008328;28;20473;-68
2021/05/11 11:15:13;;;;;;;5.30;4.80;;;27.20;99.90;;;;;;5010466;28;20433;-68
2021/05/11 11:17:42;;;;;;;5.80;5.20;;;27.20;99.90;;;;;;5010168;28;20479;-68
2021/05/11 11:20:13;;;;;;;6.00;4.70;;;27.10;99.90;;;;;;5010296;28;20439;-68
2021/05/11 11:25:28;;;;;;;4.60;4.20;;;27.20;99.90;;;;;;5010054;28;20431;-68
2021/05/11 11:27:56;;;;;;;5.20;4.70;;;27.50;99.90;;;;;;5010162;28;20429;-68
2021/05/11 11:30:24;;;;;;;5.37;4.87;;;27.40;99.90;;;;;;5009997;28;20475;-68
2021/05/11 11:33:00;;;;;;;7.20;5.50;;;27.20;99.90;;;;;;5009151;28;20498;-67
2021/05/11 11:35:32;;;;;;;4.97;4.47;;;27.20;99.90;;;;;;5010117;28;20511;-68
2021/05/11 11:38:00;;;;;;;4.67;4.27;;;27.30;99.90;;;;;;5010282;28;20826;-68
2021/05/11 11:40:29;;;;;;;5.20;4.80;;;27.40;99.90;;;;;;5009715;28;20421;-68
2021/05/11 11:42:57;;;;;;;5.10;4.60;;;27.60;99.90;;;;;;5009447;28;20488;-68
2021/05/11 11:45:26;;;;;;;5.03;4.60;;;27.90;99.90;;;;;;5009604;28;20456;-69
2021/05/11 11:48:00;;;;;;;5.67;5.20;;;28.20;99.90;;;;;;5009525;28;20491;-68
2021/05/11 11:50:30;;;;;;;5.37;4.87;;;28.40;99.90;;;;;;5009649;28;20680;-68
2021/05/11 11:53:04;;;;;;;6.30;5.60;;;28.50;99.90;;;;;;5009796;28;20807;-69
2021/05/11 11:58:25;;;;;;;5.20;4.40;;;28.90;99.90;;;;;;4973455;28;20470;-68
2021/05/11 12:00:53;;;;;;;5.50;4.90;;;28.90;99.90;;;;;;5010993;28;20759;-68
2021/05/11 12:03:22;;;;;;;4.83;4.43;;;28.90;99.90;;;;;;5011453;28;20448;-69
2021/05/11 12:05:52;;;;;;;5.80;5.23;;;29.00;99.90;;;;;;5010991;28;20417;-69
2021/05/11 12:08:24;;;;;;;14.83;7.47;;;29.00;99.90;;;;;;5011668;28;20440;-69
2021/05/11 12:10:54;;;;;;;10.07;6.63;;;29.40;99.90;;;;;;5008822;28;20855;-69
2021/05/11 12:13:24;;;;;;;10.23;4.97;;;30.00;99.90;;;;;;5009992;28;20460;-68
2021/05/11 12:16:10;;;;;;;7.20;6.67;;;30.40;99.90;;;;;;5008673;28;20784;-67
2021/05/11 12:18:41;;;;;;;5.83;5.23;;;30.30;99.90;;;;;;5010232;28;20452;-68
2021/05/11 12:21:12;;;;;;;4.80;4.40;;;30.20;99.90;;;;;;4992817;28;21292;-67
2021/05/11 12:23:40;;;;;;;4.87;4.37;;;30.20;99.90;;;;;;5010218;28;20478;-67
2021/05/11 12:26:09;;;;;;;5.67;4.90;;;30.10;99.90;;;;;;5009880;28;20421;-68
2021/05/11 12:28:39;;;;;;;5.67;5.20;;;30.00;99.90;;;;;;5009720;28;20481;-70
2021/05/11 12:31:09;;;;;;;5.10;4.70;;;30.00;99.90;;;;;;5009595;28;20519;-68
2021/05/11 12:33:38;;;;;;;5.00;4.60;;;29.80;99.90;;;;;;5009520;28;20471;-68
2021/05/11 12:36:18;;;;;;;4.90;4.50;;;29.80;99.90;;;;;;5010050;28;20426;-68
2021/05/11 12:38:46;;;;;;;5.37;4.93;;;30.00;99.90;;;;;;5008374;28;20499;-69
2021/05/11 12:41:31;;;;;;;5.87;5.37;;;30.20;99.90;;;;;;5009717;28;20421;-68
2021/05/11 12:44:00;;;;;;;9.53;5.03;;;30.30;99.90;;;;;;5007402;28;20785;-70
2021/05/11 12:46:29;;;;;;;5.83;4.93;;;30.20;99.90;;;;;;5009723;28;20417;-69
2021/05/11 12:49:01;;;;;;;5.30;4.80;;;30.40;99.90;;;;;;5009459;28;20440;-68
2021/05/11 12:51:35;;;;;;;5.67;5.17;;;30.50;99.90;;;;;;5009934;28;20421;-68
2021/05/11 12:54:21;;;;;;;4.77;4.40;;;30.70;99.90;;;;;;5010115;28;20482;-71
2021/05/11 12:57:00;;;;;;;4.53;4.07;;;31.00;99.90;;;;;;5008514;28;20468;-68
2021/05/11 12:59:41;;;;;;;5.70;4.70;;;31.20;99.90;;;;;;5009399;28;20433;-69
2021/05/11 13:02:17;;;;;;;5.10;4.70;;;31.30;99.90;;;;;;5009466;28;20536;-69
2021/05/11 13:26:46;;;;;;;4.87;4.47;;;30.90;99.90;;;;;;5014058;28;20937;-69
2021/05/11 13:29:25;;;;;;;5.10;4.60;;;30.80;99.90;;;;;;5013650;28;20445;-68
2021/05/11 13:31:56;;;;;;;7.43;6.60;;;30.90;99.90;;;;;;5013148;28;20548;-68
2021/05/11 13:34:25;;;;;;;8.60;6.87;;;31.00;99.90;;;;;;5013288;28;20468;-69
2021/05/11 13:36:53;;;;;;;5.53;5.03;;;30.80;99.90;;;;;;5013459;28;20425;-71
2021/05/11 13:39:21;;;;;;;5.20;4.70;;;30.70;99.90;;;;;;5012831;28;20520;-68
2021/05/11 13:41:48;;;;;;;4.90;4.50;;;30.50;99.90;;;;;;5013150;28;20940;-68
2021/05/11 13:44:17;;;;;;;4.80;4.40;;;30.70;99.90;;;;;;5012724;28;20449;-69
2021/05/11 13:46:45;;;;;;;5.07;4.67;;;30.90;99.90;;;;;;5013315;28;20421;-68
2021/05/11 13:49:15;;;;;;;6.33;4.40;;;30.90;99.90;;;;;;5013399;28;20479;-68
2021/05/11 13:51:43;;;;;;;5.50;5.00;;;30.80;99.90;;;;;;5012779;28;20405;-68
2021/05/11 13:54:13;;;;;;;4.60;4.30;;;30.40;99.90;;;;;;5012926;28;20472;-68
2021/05/11 14:02:36;;;;;;;5.33;4.50;;;29.90;99.90;;;;;;5012653;28;20445;-69
2021/05/11 14:05:05;;;;;;;5.47;4.97;;;29.80;99.90;;;;;;5013428;28;20806;-70
2021/05/11 14:07:33;;;;;;;5.40;5.00;;;29.50;99.90;;;;;;5013211;28;20532;-68
2021/05/11 14:10:02;;;;;;;5.50;5.00;;;29.40;99.90;;;;;;5012930;28;20616;-68
2021/05/11 14:12:30;;;;;;;6.53;4.60;;;29.40;99.90;;;;;;5014223;28;20468;-69
2021/05/11 14:14:59;;;;;;;5.13;4.73;;;29.40;99.90;;;;;;5033863;22;20500;-70
2021/05/11 14:17:28;;;;;;;5.47;4.97;;;29.60;99.90;;;;;;5015096;28;20800;-71
2021/05/11 14:19:56;;;;;;;5.27;4.77;;;29.70;99.90;;;;;;5013122;28;20449;-70
2021/05/11 14:22:25;;;;;;;4.90;4.50;;;29.90;99.90;;;;;;5003343;28;20465;-71
2021/05/11 14:24:53;;;;;;;6.07;5.57;;;29.90;99.90;;;;;;4993956;28;20414;-71
2021/05/11 14:27:21;;;;;;;8.10;4.60;;;30.20;99.90;;;;;;4993672;28;20437;-71
2021/05/11 14:29:49;;;;;;;6.57;5.73;;;30.40;99.90;;;;;;4993851;28;20470;-70
2021/05/11 14:32:17;;;;;;;4.40;4.03;;;30.60;99.90;;;;;;4993958;28;20446;-70
2021/05/11 14:34:46;;;;;;;4.53;4.13;;;30.70;99.90;;;;;;4993675;28;21066;-70
2021/05/11 14:37:14;;;;;;;5.50;4.83;;;30.50;99.90;;;;;;4993624;28;20464;-70
2021/05/11 14:39:42;;;;;;;5.00;4.50;;;30.50;99.90;;;;;;4993360;28;20442;-68
2021/05/11 14:42:10;;;;;;;5.70;5.20;;;30.60;99.90;;;;;;4993240;28;20454;-70
2021/05/11 14:44:38;;;;;;;5.97;5.57;;;30.50;99.90;;;;;;4993586;28;20834;-69
2021/05/11 14:47:06;;;;;;;7.50;6.80;;;30.30;99.90;;;;;;4993405;28;20508;-69
2021/05/11 14:49:35;;;;;;;6.33;5.57;;;30.20;99.90;;;;;;4993326;28;20436;-68
2021/05/11 14:52:07;;;;;;;6.57;4.93;;;30.00;99.90;;;;;;4993684;28;20898;-72
2021/05/11 14:54:35;;;;;;;5.07;4.63;;;30.00;99.90;;;;;;4993116;28;20476;-69
2021/05/11 14:57:03;;;;;;;4.23;3.83;;;30.00;99.90;;;;;;4991816;28;20438;-69
2021/05/11 14:59:31;;;;;;;7.20;4.70;;;30.00;99.90;;;;;;4991888;28;20481;-69
2021/05/11 15:01:59;;;;;;;7.00;6.30;;;30.10;99.90;;;;;;4993022;28;20496;-70
2021/05/11 15:04:27;;;;;;;5.77;5.23;;;30.10;99.90;;;;;;4993289;28;20418;-71
2021/05/11 15:06:55;;;;;;;6.50;5.90;;;29.90;99.90;;;;;;4993400;28;20414;-71
2021/05/11 15:09:25;;;;;;;6.30;5.70;;;29.30;99.90;;;;;;4993557;28;20509;-70
2021/05/11 15:11:53;;;;;;;5.97;5.47;;;29.00;99.90;;;;;;4993221;28;20516;-70
2021/05/11 15:14:22;;;;;;;6.40;5.90;;;28.80;99.90;;;;;;4993111;28;20508;-69
2021/05/11 15:16:57;;;;;;;6.47;5.97;;;28.60;99.90;;;;;;4993282;28;20421;-70
2021/05/11 15:19:25;;;;;;;8.20;6.40;;;28.50;99.90;;;;;;4993292;28;20413;-72
2021/05/11 15:21:53;;;;;;;6.10;5.50;;;28.40;99.90;;;;;;4993560;28;20449;-69
2021/05/11 15:24:22;;;;;;;5.13;4.73;;;28.20;99.90;;;;;;4994254;28;20986;-69
2021/05/11 15:26:50;;;;;;;5.17;4.77;;;28.00;99.90;;;;;;4993029;28;20441;-72
2021/05/11 15:29:18;;;;;;;5.83;5.43;;;27.80;99.90;;;;;;4993139;28;20480;-70
2021/05/11 15:31:48;;;;;;;6.37;5.83;;;27.70;99.90;;;;;;4992830;28;20422;-70
2021/05/11 15:34:15;;;;;;;6.00;5.50;;;27.70;99.90;;;;;;4992593;28;20464;-68
2021/05/11 15:36:59;;;;;;;7.80;6.43;;;27.50;99.90;;;;;;4993098;28;20827;-69
2021/05/11 15:39:28;;;;;;;6.90;5.50;;;27.50;99.90;;;;;;4992832;28;20433;-69
2021/05/11 15:41:56;;;;;;;7.10;6.47;;;27.40;99.90;;;;;;4992287;28;20441;-68
2021/05/11 15:44:23;;;;;;;6.30;5.80;;;27.60;99.90;;;;;;4992395;28;20441;-68
2021/05/11 15:46:51;;;;;;;6.00;5.50;;;27.50;99.90;;;;;;4992456;28;20520;-69
2021/05/11 15:49:20;;;;;;;8.97;6.27;;;27.50;99.90;;;;;;4992397;28;20437;-69
2021/05/11 15:51:48;;;;;;;6.07;5.57;;;27.30;99.90;;;;;;4992579;28;20505;-68
2021/05/11 15:54:16;;;;;;;7.03;6.33;;;27.10;99.90;;;;;;4991942;28;20466;-69
2021/05/11 15:56:45;;;;;;;6.60;5.90;;;26.80;99.90;;;;;;4990733;28;20445;-70
2021/05/11 15:59:13;;;;;;;7.50;6.20;;;26.50;99.90;;;;;;4991907;28;20426;-69
2021/05/11 16:01:41;;;;;;;6.07;5.57;;;26.40;99.90;;;;;;4990893;28;20515;-68
2021/05/11 16:04:08;;;;;;;9.23;5.67;;;26.30;99.90;;;;;;4991430;28;21006;-70
2021/05/11 16:06:37;;;;;;;6.60;6.00;;;26.30;99.90;;;;;;5010334;28;20432;-69
2021/05/11 16:09:05;;;;;;;6.03;5.23;;;26.30;99.90;;;;;;5002893;28;20426;-69
2021/05/11 16:11:34;;;;;;;6.73;6.13;;;26.50;99.90;;;;;;5005826;28;20451;-69
2021/05/11 16:14:03;;;;;;;6.83;6.23;;;26.50;99.90;;;;;;5006249;28;20470;-68
2021/05/11 16:16:32;;;;;;;5.70;5.20;;;26.50;99.90;;;;;;4992375;28;20481;-71
2021/05/11 16:19:00;;;;;;;6.90;5.90;;;26.60;99.90;;;;;;4994496;28;20434;-68
2021/05/11 16:21:28;;;;;;;6.70;6.10;;;26.60;99.90;;;;;;4995990;28;20421;-69
2021/05/11 16:23:56;;;;;;;6.03;5.53;;;26.40;99.90;;;;;;5009589;28;20461;-70
2021/05/11 16:26:25;;;;;;;6.57;6.07;;;26.40;99.90;;;;;;5011747;28;20418;-68
2021/05/11 16:28:53;;;;;;;6.63;6.07;;;26.80;99.90;;;;;;5011431;28;20845;-70
2021/05/11 16:31:24;;;;;;;6.40;5.90;;;27.10;99.90;;;;;;5010919;28;20483;-69
2021/05/11 16:33:52;;;;;;;7.80;7.20;;;27.20;99.90;;;;;;5011804;28;20468;-71
2021/05/11 16:36:20;;;;;;;8.13;5.97;;;27.40;99.90;;;;;;5010996;28;20432;-68